sensor_id;sensor_type;location;lat;lon;timestamp;pressure;altitude;pressure_sealevel;temperature
20092;BMP180;10205;49.678;6.560;2022-11-27T00:01:31;101042.00;;;11.90
20092;BMP180;10205;49.678;6.560;2022-11-27T00:03:59;101049.00;;;11.90
20092;BMP180;10205;49.678;6.560;2022-11-27T00:06:28;101048.00;;;11.90
20092;BMP180;10205;49.678;6.560;2022-11-27T00:08:56;101032.00;;;11.90
20092;BMP180;10205;49.678;6.560;2022-11-27T00:11:25;101036.00;;;11.80
20092;BMP180;10205;49.678;6.560;2022-11-27T00:13:53;101018.00;;;11.80
20092;BMP180;10205;49.678;6.560;2022-11-27T00:16:22;101015.00;;;11.80
20092;BMP180;10205;49.678;6.560;2022-11-27T00:18:51;101020.00;;;11.80
20092;BMP180;10205;49.678;6.560;2022-11-27T00:21:21;101018.00;;;11.80
20092;BMP180;10205;49.678;6.560;2022-11-27T00:23:49;101011.00;;;11.80
20092;BMP180;10205;49.678;6.560;2022-11-27T00:26:18;101008.00;;;11.80
20092;BMP180;10205;49.678;6.560;2022-11-27T00:28:46;101008.00;;;11.80
20092;BMP180;10205;49.678;6.560;2022-11-27T00:31:16;101006.00;;;11.80
20092;BMP180;10205;49.678;6.560;2022-11-27T00:33:43;100997.00;;;11.80
20092;BMP180;10205;49.678;6.560;2022-11-27T00:36:14;101009.00;;;11.70
20092;BMP180;10205;49.678;6.560;2022-11-27T00:38:41;101006.00;;;11.70
20092;BMP180;10205;49.678;6.560;2022-11-27T00:41:10;101008.00;;;11.70
20092;BMP180;10205;49.678;6.560;2022-11-27T00:43:38;101014.00;;;11.70
20092;BMP180;10205;49.678;6.560;2022-11-27T00:46:06;101013.00;;;11.70
20092;BMP180;10205;49.678;6.560;2022-11-27T00:48:34;101008.00;;;11.70
20092;BMP180;10205;49.678;6.560;2022-11-27T00:51:03;100996.00;;;11.70
20092;BMP180;10205;49.678;6.560;2022-11-27T00:53:33;101007.00;;;11.70
20092;BMP180;10205;49.678;6.560;2022-11-27T00:56:01;101007.00;;;11.70
20092;BMP180;10205;49.678;6.560;2022-11-27T00:58:28;100997.00;;;11.70
20092;BMP180;10205;49.678;6.560;2022-11-27T01:00:58;101004.00;;;11.70
20092;BMP180;10205;49.678;6.560;2022-11-27T01:03:27;101008.00;;;11.70
20092;BMP180;10205;49.678;6.560;2022-11-27T01:05:55;101005.00;;;11.70
20092;BMP180;10205;49.678;6.560;2022-11-27T01:08:22;100999.00;;;11.70
20092;BMP180;10205;49.678;6.560;2022-11-27T01:10:53;100999.00;;;11.60
20092;BMP180;10205;49.678;6.560;2022-11-27T01:13:23;101000.00;;;11.60
20092;BMP180;10205;49.678;6.560;2022-11-27T01:15:58;101000.00;;;11.60
20092;BMP180;10205;49.678;6.560;2022-11-27T01:18:26;101007.00;;;11.60
20092;BMP180;10205;49.678;6.560;2022-11-27T01:20:54;101012.00;;;11.60
20092;BMP180;10205;49.678;6.560;2022-11-27T01:23:22;101005.00;;;11.60
20092;BMP180;10205;49.678;6.560;2022-11-27T01:25:52;100994.00;;;11.50
20092;BMP180;10205;49.678;6.560;2022-11-27T01:28:20;101010.00;;;11.50
20092;BMP180;10205;49.678;6.560;2022-11-27T01:30:50;101003.00;;;11.50
20092;BMP180;10205;49.678;6.560;2022-11-27T01:33:18;100993.00;;;11.50
20092;BMP180;10205;49.678;6.560;2022-11-27T01:35:53;100989.00;;;11.50
20092;BMP180;10205;49.678;6.560;2022-11-27T01:38:21;100987.00;;;11.50
20092;BMP180;10205;49.678;6.560;2022-11-27T01:40:56;100986.00;;;11.50
20092;BMP180;10205;49.678;6.560;2022-11-27T01:43:40;100988.00;;;11.40
20092;BMP180;10205;49.678;6.560;2022-11-27T01:46:35;100985.00;;;11.40
20092;BMP180;10205;49.678;6.560;2022-11-27T01:49:25;100971.00;;;11.40
20092;BMP180;10205;49.678;6.560;2022-11-27T01:52:02;100965.00;;;11.40
20092;BMP180;10205;49.678;6.560;2022-11-27T01:54:37;100961.00;;;11.40
20092;BMP180;10205;49.678;6.560;2022-11-27T01:57:13;100961.00;;;11.30
20092;BMP180;10205;49.678;6.560;2022-11-27T01:59:42;100960.00;;;11.30
20092;BMP180;10205;49.678;6.560;2022-11-27T02:02:10;100958.00;;;11.30
20092;BMP180;10205;49.678;6.560;2022-11-27T02:04:37;100954.00;;;11.20
20092;BMP180;10205;49.678;6.560;2022-11-27T02:07:04;100951.00;;;11.20
20092;BMP180;10205;49.678;6.560;2022-11-27T02:09:32;100946.00;;;11.20
20092;BMP180;10205;49.678;6.560;2022-11-27T02:12:10;100951.00;;;11.20
20092;BMP180;10205;49.678;6.560;2022-11-27T02:14:49;100955.00;;;11.20
20092;BMP180;10205;49.678;6.560;2022-11-27T02:17:30;100967.00;;;11.10
20092;BMP180;10205;49.678;6.560;2022-11-27T02:20:22;100955.00;;;11.10
20092;BMP180;10205;49.678;6.560;2022-11-27T02:23:22;100954.00;;;11.10
20092;BMP180;10205;49.678;6.560;2022-11-27T02:26:23;100945.00;;;11.10
20092;BMP180;10205;49.678;6.560;2022-11-27T02:29:00;100956.00;;;11.00
20092;BMP180;10205;49.678;6.560;2022-11-27T02:31:37;100943.00;;;11.00
20092;BMP180;10205;49.678;6.560;2022-11-27T02:34:16;100939.00;;;11.00
20092;BMP180;10205;49.678;6.560;2022-11-27T02:36:53;100940.00;;;11.00
20092;BMP180;10205;49.678;6.560;2022-11-27T02:39:30;100939.00;;;11.00
20092;BMP180;10205;49.678;6.560;2022-11-27T02:42:05;100940.00;;;10.90
20092;BMP180;10205;49.678;6.560;2022-11-27T02:44:43;100937.00;;;10.90
20092;BMP180;10205;49.678;6.560;2022-11-27T02:47:13;100928.00;;;10.80
20092;BMP180;10205;49.678;6.560;2022-11-27T02:49:43;100947.00;;;10.80
20092;BMP180;10205;49.678;6.560;2022-11-27T02:52:12;100936.00;;;10.80
20092;BMP180;10205;49.678;6.560;2022-11-27T02:54:44;100941.00;;;10.80
20092;BMP180;10205;49.678;6.560;2022-11-27T02:57:14;100937.00;;;10.80
20092;BMP180;10205;49.678;6.560;2022-11-27T02:59:44;100937.00;;;10.70
20092;BMP180;10205;49.678;6.560;2022-11-27T03:02:19;100926.00;;;10.70
20092;BMP180;10205;49.678;6.560;2022-11-27T03:04:53;100933.00;;;10.70
20092;BMP180;10205;49.678;6.560;2022-11-27T03:07:30;100926.00;;;10.70
20092;BMP180;10205;49.678;6.560;2022-11-27T03:10:06;100923.00;;;10.70
20092;BMP180;10205;49.678;6.560;2022-11-27T03:12:35;100921.00;;;10.60
20092;BMP180;10205;49.678;6.560;2022-11-27T03:15:05;100911.00;;;10.60
20092;BMP180;10205;49.678;6.560;2022-11-27T03:17:50;100903.00;;;10.60
20092;BMP180;10205;49.678;6.560;2022-11-27T03:20:24;100895.00;;;10.60
20092;BMP180;10205;49.678;6.560;2022-11-27T03:22:53;100893.00;;;10.70
20092;BMP180;10205;49.678;6.560;2022-11-27T03:25:23;100902.00;;;10.60
20092;BMP180;10205;49.678;6.560;2022-11-27T03:27:57;100896.00;;;10.60
20092;BMP180;10205;49.678;6.560;2022-11-27T03:30:27;100886.00;;;10.60
20092;BMP180;10205;49.678;6.560;2022-11-27T03:32:54;100882.00;;;10.60
20092;BMP180;10205;49.678;6.560;2022-11-27T03:35:26;100874.00;;;10.60
20092;BMP180;10205;49.678;6.560;2022-11-27T03:37:54;100870.00;;;10.60
20092;BMP180;10205;49.678;6.560;2022-11-27T03:40:29;100868.00;;;10.60
20092;BMP180;10205;49.678;6.560;2022-11-27T03:43:09;100860.00;;;10.60
20092;BMP180;10205;49.678;6.560;2022-11-27T03:45:49;100861.00;;;10.60
20092;BMP180;10205;49.678;6.560;2022-11-27T03:48:25;100857.00;;;10.60
20092;BMP180;10205;49.678;6.560;2022-11-27T03:51:07;100860.00;;;10.60
20092;BMP180;10205;49.678;6.560;2022-11-27T03:53:50;100872.00;;;10.60
20092;BMP180;10205;49.678;6.560;2022-11-27T03:56:31;100873.00;;;10.60
20092;BMP180;10205;49.678;6.560;2022-11-27T03:59:06;100867.00;;;10.60
20092;BMP180;10205;49.678;6.560;2022-11-27T04:01:36;100875.00;;;10.60
20092;BMP180;10205;49.678;6.560;2022-11-27T04:04:05;100867.00;;;10.60
20092;BMP180;10205;49.678;6.560;2022-11-27T04:06:32;100883.00;;;10.60
20092;BMP180;10205;49.678;6.560;2022-11-27T04:08:59;100905.00;;;10.60
20092;BMP180;10205;49.678;6.560;2022-11-27T04:11:26;100885.00;;;10.60
20092;BMP180;10205;49.678;6.560;2022-11-27T04:13:53;100865.00;;;10.60
20092;BMP180;10205;49.678;6.560;2022-11-27T04:16:21;100863.00;;;10.60
20092;BMP180;10205;49.678;6.560;2022-11-27T04:18:49;100876.00;;;10.50
20092;BMP180;10205;49.678;6.560;2022-11-27T04:21:16;100880.00;;;10.50
20092;BMP180;10205;49.678;6.560;2022-11-27T04:23:43;100873.00;;;10.50
20092;BMP180;10205;49.678;6.560;2022-11-27T04:26:10;100883.00;;;10.40
20092;BMP180;10205;49.678;6.560;2022-11-27T04:28:37;100884.00;;;10.40
20092;BMP180;10205;49.678;6.560;2022-11-27T04:31:05;100881.00;;;10.40
20092;BMP180;10205;49.678;6.560;2022-11-27T04:33:33;100871.00;;;10.40
20092;BMP180;10205;49.678;6.560;2022-11-27T04:36:02;100864.00;;;10.40
20092;BMP180;10205;49.678;6.560;2022-11-27T04:38:30;100856.00;;;10.30
20092;BMP180;10205;49.678;6.560;2022-11-27T04:40:57;100858.00;;;10.30
20092;BMP180;10205;49.678;6.560;2022-11-27T04:43:24;100844.00;;;10.30
20092;BMP180;10205;49.678;6.560;2022-11-27T04:45:51;100828.00;;;10.30
20092;BMP180;10205;49.678;6.560;2022-11-27T04:48:18;100816.00;;;10.30
20092;BMP180;10205;49.678;6.560;2022-11-27T04:50:45;100811.00;;;10.30
20092;BMP180;10205;49.678;6.560;2022-11-27T04:53:13;100811.00;;;10.30
20092;BMP180;10205;49.678;6.560;2022-11-27T04:55:41;100807.00;;;10.30
20092;BMP180;10205;49.678;6.560;2022-11-27T04:58:08;100821.00;;;10.30
20092;BMP180;10205;49.678;6.560;2022-11-27T05:00:35;100829.00;;;10.30
20092;BMP180;10205;49.678;6.560;2022-11-27T05:03:02;100839.00;;;10.30
20092;BMP180;10205;49.678;6.560;2022-11-27T05:05:29;100824.00;;;10.20
20092;BMP180;10205;49.678;6.560;2022-11-27T05:07:56;100826.00;;;10.20
20092;BMP180;10205;49.678;6.560;2022-11-27T05:10:25;100827.00;;;10.20
20092;BMP180;10205;49.678;6.560;2022-11-27T05:12:52;100825.00;;;10.20
20092;BMP180;10205;49.678;6.560;2022-11-27T05:15:19;100827.00;;;10.20
20092;BMP180;10205;49.678;6.560;2022-11-27T05:17:46;100826.00;;;10.20
20092;BMP180;10205;49.678;6.560;2022-11-27T05:20:14;100821.00;;;10.20
20092;BMP180;10205;49.678;6.560;2022-11-27T05:22:41;100815.00;;;10.20
20092;BMP180;10205;49.678;6.560;2022-11-27T05:25:10;100828.00;;;10.10
20092;BMP180;10205;49.678;6.560;2022-11-27T05:27:43;100843.00;;;10.10
20092;BMP180;10205;49.678;6.560;2022-11-27T05:30:11;100848.00;;;10.00
20092;BMP180;10205;49.678;6.560;2022-11-27T05:32:38;100843.00;;;10.00
20092;BMP180;10205;49.678;6.560;2022-11-27T05:35:06;100836.00;;;10.00
20092;BMP180;10205;49.678;6.560;2022-11-27T05:37:33;100819.00;;;9.90
20092;BMP180;10205;49.678;6.560;2022-11-27T05:40:00;100803.00;;;9.90
20092;BMP180;10205;49.678;6.560;2022-11-27T05:42:27;100796.00;;;9.90
20092;BMP180;10205;49.678;6.560;2022-11-27T05:44:55;100791.00;;;9.90
20092;BMP180;10205;49.678;6.560;2022-11-27T05:47:23;100804.00;;;9.90
20092;BMP180;10205;49.678;6.560;2022-11-27T05:49:50;100794.00;;;9.90
20092;BMP180;10205;49.678;6.560;2022-11-27T05:52:17;100791.00;;;9.90
20092;BMP180;10205;49.678;6.560;2022-11-27T05:54:44;100786.00;;;9.90
20092;BMP180;10205;49.678;6.560;2022-11-27T05:57:11;100801.00;;;9.90
20092;BMP180;10205;49.678;6.560;2022-11-27T05:59:38;100797.00;;;9.90
20092;BMP180;10205;49.678;6.560;2022-11-27T06:02:06;100787.00;;;9.90
20092;BMP180;10205;49.678;6.560;2022-11-27T06:04:34;100797.00;;;9.90
20092;BMP180;10205;49.678;6.560;2022-11-27T06:07:01;100794.00;;;9.90
20092;BMP180;10205;49.678;6.560;2022-11-27T06:09:28;100795.00;;;9.90
20092;BMP180;10205;49.678;6.560;2022-11-27T06:11:58;100791.00;;;9.90
20092;BMP180;10205;49.678;6.560;2022-11-27T06:14:25;100784.00;;;9.90
20092;BMP180;10205;49.678;6.560;2022-11-27T06:16:52;100807.00;;;9.90
20092;BMP180;10205;49.678;6.560;2022-11-27T06:19:23;100794.00;;;9.90
20092;BMP180;10205;49.678;6.560;2022-11-27T06:21:50;100809.00;;;9.90
20092;BMP180;10205;49.678;6.560;2022-11-27T06:24:19;100797.00;;;9.90
20092;BMP180;10205;49.678;6.560;2022-11-27T06:26:46;100804.00;;;9.90
20092;BMP180;10205;49.678;6.560;2022-11-27T06:29:14;100785.00;;;9.90
20092;BMP180;10205;49.678;6.560;2022-11-27T06:31:43;100780.00;;;9.90
20092;BMP180;10205;49.678;6.560;2022-11-27T06:34:11;100772.00;;;9.90
20092;BMP180;10205;49.678;6.560;2022-11-27T06:36:40;100764.00;;;9.90
20092;BMP180;10205;49.678;6.560;2022-11-27T06:39:09;100757.00;;;9.90
20092;BMP180;10205;49.678;6.560;2022-11-27T06:41:38;100765.00;;;9.90
20092;BMP180;10205;49.678;6.560;2022-11-27T06:44:05;100775.00;;;9.90
20092;BMP180;10205;49.678;6.560;2022-11-27T06:46:32;100767.00;;;9.90
20092;BMP180;10205;49.678;6.560;2022-11-27T06:49:00;100765.00;;;9.90
20092;BMP180;10205;49.678;6.560;2022-11-27T06:51:29;100771.00;;;9.90
20092;BMP180;10205;49.678;6.560;2022-11-27T06:54:01;100776.00;;;9.90
20092;BMP180;10205;49.678;6.560;2022-11-27T06:56:30;100745.00;;;9.90
20092;BMP180;10205;49.678;6.560;2022-11-27T06:58:59;100741.00;;;9.90
20092;BMP180;10205;49.678;6.560;2022-11-27T07:01:29;100725.00;;;9.90
20092;BMP180;10205;49.678;6.560;2022-11-27T07:03:57;100724.00;;;9.90
20092;BMP180;10205;49.678;6.560;2022-11-27T07:06:26;100729.00;;;9.90
20092;BMP180;10205;49.678;6.560;2022-11-27T07:08:57;100708.00;;;9.80
20092;BMP180;10205;49.678;6.560;2022-11-27T07:11:28;100712.00;;;9.80
20092;BMP180;10205;49.678;6.560;2022-11-27T07:13:59;100706.00;;;9.80
20092;BMP180;10205;49.678;6.560;2022-11-27T07:16:29;100718.00;;;9.80
20092;BMP180;10205;49.678;6.560;2022-11-27T07:18:59;100706.00;;;9.80
20092;BMP180;10205;49.678;6.560;2022-11-27T07:21:27;100707.00;;;9.80
20092;BMP180;10205;49.678;6.560;2022-11-27T07:23:55;100702.00;;;9.80
20092;BMP180;10205;49.678;6.560;2022-11-27T07:26:26;100701.00;;;9.70
20092;BMP180;10205;49.678;6.560;2022-11-27T07:28:55;100705.00;;;9.80
20092;BMP180;10205;49.678;6.560;2022-11-27T07:31:26;100709.00;;;9.80
20092;BMP180;10205;49.678;6.560;2022-11-27T07:33:54;100715.00;;;9.80
20092;BMP180;10205;49.678;6.560;2022-11-27T07:36:24;100715.00;;;9.80
20092;BMP180;10205;49.678;6.560;2022-11-27T07:38:52;100708.00;;;9.70
20092;BMP180;10205;49.678;6.560;2022-11-27T07:41:19;100694.00;;;9.70
20092;BMP180;10205;49.678;6.560;2022-11-27T07:43:49;100695.00;;;9.70
20092;BMP180;10205;49.678;6.560;2022-11-27T07:46:19;100701.00;;;9.70
20092;BMP180;10205;49.678;6.560;2022-11-27T07:48:46;100710.00;;;9.70
20092;BMP180;10205;49.678;6.560;2022-11-27T07:51:16;100711.00;;;9.70
20092;BMP180;10205;49.678;6.560;2022-11-27T07:53:44;100700.00;;;9.70
20092;BMP180;10205;49.678;6.560;2022-11-27T07:56:13;100699.00;;;9.70
20092;BMP180;10205;49.678;6.560;2022-11-27T07:58:40;100730.00;;;9.70
20092;BMP180;10205;49.678;6.560;2022-11-27T08:01:14;100713.00;;;9.60
20092;BMP180;10205;49.678;6.560;2022-11-27T08:03:42;100689.00;;;9.60
20092;BMP180;10205;49.678;6.560;2022-11-27T08:06:16;100687.00;;;9.60
20092;BMP180;10205;49.678;6.560;2022-11-27T08:08:44;100692.00;;;9.60
20092;BMP180;10205;49.678;6.560;2022-11-27T08:11:20;100696.00;;;9.60
20092;BMP180;10205;49.678;6.560;2022-11-27T08:13:54;100707.00;;;9.60
20092;BMP180;10205;49.678;6.560;2022-11-27T08:16:23;100674.00;;;9.60
20092;BMP180;10205;49.678;6.560;2022-11-27T08:18:50;100672.00;;;9.60
20092;BMP180;10205;49.678;6.560;2022-11-27T08:21:17;100683.00;;;9.60
20092;BMP180;10205;49.678;6.560;2022-11-27T08:23:45;100675.00;;;9.60
20092;BMP180;10205;49.678;6.560;2022-11-27T08:26:12;100662.00;;;9.60
20092;BMP180;10205;49.678;6.560;2022-11-27T08:28:41;100668.00;;;9.60
20092;BMP180;10205;49.678;6.560;2022-11-27T08:31:11;100680.00;;;9.60
20092;BMP180;10205;49.678;6.560;2022-11-27T08:33:40;100673.00;;;9.60
20092;BMP180;10205;49.678;6.560;2022-11-27T08:36:09;100682.00;;;9.60
20092;BMP180;10205;49.678;6.560;2022-11-27T08:38:36;100675.00;;;9.60
20092;BMP180;10205;49.678;6.560;2022-11-27T08:41:06;100675.00;;;9.60
20092;BMP180;10205;49.678;6.560;2022-11-27T08:43:34;100669.00;;;9.60
20092;BMP180;10205;49.678;6.560;2022-11-27T08:46:03;100673.00;;;9.60
20092;BMP180;10205;49.678;6.560;2022-11-27T08:48:30;100667.00;;;9.60
20092;BMP180;10205;49.678;6.560;2022-11-27T08:51:05;100683.00;;;9.60
20092;BMP180;10205;49.678;6.560;2022-11-27T08:53:33;100673.00;;;9.60
20092;BMP180;10205;49.678;6.560;2022-11-27T08:56:05;100679.00;;;9.70
20092;BMP180;10205;49.678;6.560;2022-11-27T08:58:34;100675.00;;;9.70
20092;BMP180;10205;49.678;6.560;2022-11-27T09:01:08;100676.00;;;9.70
20092;BMP180;10205;49.678;6.560;2022-11-27T09:03:35;100674.00;;;9.70
20092;BMP180;10205;49.678;6.560;2022-11-27T09:06:08;100681.00;;;9.70
20092;BMP180;10205;49.678;6.560;2022-11-27T09:08:37;100677.00;;;9.70
20092;BMP180;10205;49.678;6.560;2022-11-27T09:11:05;100674.00;;;9.70
20092;BMP180;10205;49.678;6.560;2022-11-27T09:13:34;100662.00;;;9.70
20092;BMP180;10205;49.678;6.560;2022-11-27T09:16:02;100652.00;;;9.70
20092;BMP180;10205;49.678;6.560;2022-11-27T09:18:29;100661.00;;;9.70
20092;BMP180;10205;49.678;6.560;2022-11-27T09:20:58;100657.00;;;9.70
20092;BMP180;10205;49.678;6.560;2022-11-27T09:23:28;100641.00;;;9.70
20092;BMP180;10205;49.678;6.560;2022-11-27T09:25:58;100642.00;;;9.80
20092;BMP180;10205;49.678;6.560;2022-11-27T09:28:28;100636.00;;;9.80
20092;BMP180;10205;49.678;6.560;2022-11-27T09:30:56;100646.00;;;9.80
20092;BMP180;10205;49.678;6.560;2022-11-27T09:33:26;100660.00;;;9.80
20092;BMP180;10205;49.678;6.560;2022-11-27T09:35:53;100642.00;;;9.80
20092;BMP180;10205;49.678;6.560;2022-11-27T09:38:21;100617.00;;;9.80
20092;BMP180;10205;49.678;6.560;2022-11-27T09:40:53;100609.00;;;9.80
20092;BMP180;10205;49.678;6.560;2022-11-27T09:43:40;100617.00;;;9.80
20092;BMP180;10205;49.678;6.560;2022-11-27T09:46:14;100606.00;;;9.90
20092;BMP180;10205;49.678;6.560;2022-11-27T09:48:48;100612.00;;;9.90
20092;BMP180;10205;49.678;6.560;2022-11-27T09:51:24;100606.00;;;9.90
20092;BMP180;10205;49.678;6.560;2022-11-27T09:53:59;100624.00;;;9.90
20092;BMP180;10205;49.678;6.560;2022-11-27T09:56:34;100618.00;;;9.90
20092;BMP180;10205;49.678;6.560;2022-11-27T09:59:08;100617.00;;;9.90
20092;BMP180;10205;49.678;6.560;2022-11-27T10:01:40;100618.00;;;9.90
20092;BMP180;10205;49.678;6.560;2022-11-27T10:04:11;100597.00;;;9.90
20092;BMP180;10205;49.678;6.560;2022-11-27T10:06:58;100598.00;;;10.00
20092;BMP180;10205;49.678;6.560;2022-11-27T10:09:40;100600.00;;;10.00
20092;BMP180;10205;49.678;6.560;2022-11-27T10:12:20;100603.00;;;10.00
20092;BMP180;10205;49.678;6.560;2022-11-27T10:15:02;100596.00;;;10.00
20092;BMP180;10205;49.678;6.560;2022-11-27T10:17:36;100599.00;;;10.00
20092;BMP180;10205;49.678;6.560;2022-11-27T10:20:18;100597.00;;;10.00
20092;BMP180;10205;49.678;6.560;2022-11-27T10:22:57;100589.00;;;10.10
20092;BMP180;10205;49.678;6.560;2022-11-27T10:25:33;100588.00;;;10.10
20092;BMP180;10205;49.678;6.560;2022-11-27T10:28:20;100586.00;;;10.10
20092;BMP180;10205;49.678;6.560;2022-11-27T10:30:54;100576.00;;;10.20
20092;BMP180;10205;49.678;6.560;2022-11-27T10:33:27;100569.00;;;10.20
20092;BMP180;10205;49.678;6.560;2022-11-27T10:35:58;100573.00;;;10.20
20092;BMP180;10205;49.678;6.560;2022-11-27T10:38:31;100560.00;;;10.20
20092;BMP180;10205;49.678;6.560;2022-11-27T10:41:07;100554.00;;;10.30
20092;BMP180;10205;49.678;6.560;2022-11-27T10:43:38;100550.00;;;10.30
20092;BMP180;10205;49.678;6.560;2022-11-27T10:46:13;100538.00;;;10.30
20092;BMP180;10205;49.678;6.560;2022-11-27T10:48:41;100546.00;;;10.40
20092;BMP180;10205;49.678;6.560;2022-11-27T10:51:17;100543.00;;;10.40
20092;BMP180;10205;49.678;6.560;2022-11-27T10:53:50;100537.00;;;10.40
20092;BMP180;10205;49.678;6.560;2022-11-27T10:56:48;100529.00;;;10.40
20092;BMP180;10205;49.678;6.560;2022-11-27T10:59:26;100529.00;;;10.50
20092;BMP180;10205;49.678;6.560;2022-11-27T11:01:56;100521.00;;;10.50
20092;BMP180;10205;49.678;6.560;2022-11-27T11:04:27;100520.00;;;10.50
20092;BMP180;10205;49.678;6.560;2022-11-27T11:06:56;100502.00;;;10.60
20092;BMP180;10205;49.678;6.560;2022-11-27T11:09:26;100519.00;;;10.60
20092;BMP180;10205;49.678;6.560;2022-11-27T11:12:04;100504.00;;;10.60
20092;BMP180;10205;49.678;6.560;2022-11-27T11:14:33;100520.00;;;10.70
20092;BMP180;10205;49.678;6.560;2022-11-27T11:17:00;100493.00;;;10.70
20092;BMP180;10205;49.678;6.560;2022-11-27T11:19:30;100490.00;;;10.70
20092;BMP180;10205;49.678;6.560;2022-11-27T11:22:03;100491.00;;;10.80
20092;BMP180;10205;49.678;6.560;2022-11-27T11:24:34;100489.00;;;10.80
20092;BMP180;10205;49.678;6.560;2022-11-27T11:27:12;100475.00;;;10.80
20092;BMP180;10205;49.678;6.560;2022-11-27T11:29:46;100471.00;;;10.80
20092;BMP180;10205;49.678;6.560;2022-11-27T11:32:22;100456.00;;;10.90
20092;BMP180;10205;49.678;6.560;2022-11-27T11:34:54;100451.00;;;10.90
20092;BMP180;10205;49.678;6.560;2022-11-27T11:37:26;100449.00;;;10.90
20092;BMP180;10205;49.678;6.560;2022-11-27T11:39:57;100441.00;;;11.00
20092;BMP180;10205;49.678;6.560;2022-11-27T11:42:29;100434.00;;;11.00
20092;BMP180;10205;49.678;6.560;2022-11-27T11:45:16;100432.00;;;11.00
20092;BMP180;10205;49.678;6.560;2022-11-27T11:47:45;100418.00;;;11.00
20092;BMP180;10205;49.678;6.560;2022-11-27T11:50:16;100410.00;;;11.10
20092;BMP180;10205;49.678;6.560;2022-11-27T11:52:58;100419.00;;;11.10
20092;BMP180;10205;49.678;6.560;2022-11-27T11:55:34;100411.00;;;11.10
20092;BMP180;10205;49.678;6.560;2022-11-27T11:58:23;100399.00;;;11.10
20092;BMP180;10205;49.678;6.560;2022-11-27T12:01:11;100388.00;;;11.20
20092;BMP180;10205;49.678;6.560;2022-11-27T12:04:01;100377.00;;;11.20
20092;BMP180;10205;49.678;6.560;2022-11-27T12:06:53;100370.00;;;11.20
20092;BMP180;10205;49.678;6.560;2022-11-27T12:09:36;100359.00;;;11.20
20092;BMP180;10205;49.678;6.560;2022-11-27T12:12:24;100352.00;;;11.20
20092;BMP180;10205;49.678;6.560;2022-11-27T12:15:02;100342.00;;;11.30
20092;BMP180;10205;49.678;6.560;2022-11-27T12:17:49;100316.00;;;11.30
20092;BMP180;10205;49.678;6.560;2022-11-27T12:20:33;100316.00;;;11.30
20092;BMP180;10205;49.678;6.560;2022-11-27T12:23:40;100316.00;;;11.30
20092;BMP180;10205;49.678;6.560;2022-11-27T12:26:21;100319.00;;;11.40
20092;BMP180;10205;49.678;6.560;2022-11-27T12:29:50;100308.00;;;11.40
20092;BMP180;10205;49.678;6.560;2022-11-27T12:35:32;100312.00;;;11.40
20092;BMP180;10205;49.678;6.560;2022-11-27T12:38:27;100311.00;;;11.40
20092;BMP180;10205;49.678;6.560;2022-11-27T12:41:28;100304.00;;;11.40
20092;BMP180;10205;49.678;6.560;2022-11-27T12:43:58;100305.00;;;11.50
20092;BMP180;10205;49.678;6.560;2022-11-27T12:46:37;100287.00;;;11.50
20092;BMP180;10205;49.678;6.560;2022-11-27T12:49:20;100282.00;;;11.50
20092;BMP180;10205;49.678;6.560;2022-11-27T12:51:53;100273.00;;;11.50
20092;BMP180;10205;49.678;6.560;2022-11-27T12:54:28;100258.00;;;11.50
20092;BMP180;10205;49.678;6.560;2022-11-27T12:57:00;100252.00;;;11.60
20092;BMP180;10205;49.678;6.560;2022-11-27T12:59:32;100243.00;;;11.60
20092;BMP180;10205;49.678;6.560;2022-11-27T13:02:23;100247.00;;;11.60
20092;BMP180;10205;49.678;6.560;2022-11-27T13:04:59;100233.00;;;11.60
20092;BMP180;10205;49.678;6.560;2022-11-27T13:07:34;100218.00;;;11.60
20092;BMP180;10205;49.678;6.560;2022-11-27T13:10:15;100221.00;;;11.60
20092;BMP180;10205;49.678;6.560;2022-11-27T13:12:52;100209.00;;;11.70
20092;BMP180;10205;49.678;6.560;2022-11-27T13:15:29;100216.00;;;11.70
20092;BMP180;10205;49.678;6.560;2022-11-27T13:18:03;100197.00;;;11.70
20092;BMP180;10205;49.678;6.560;2022-11-27T13:20:39;100192.00;;;11.70
20092;BMP180;10205;49.678;6.560;2022-11-27T13:23:07;100180.00;;;11.70
20092;BMP180;10205;49.678;6.560;2022-11-27T13:25:41;100187.00;;;11.80
20092;BMP180;10205;49.678;6.560;2022-11-27T13:28:23;100184.00;;;11.80
20092;BMP180;10205;49.678;6.560;2022-11-27T13:30:53;100174.00;;;11.80
20092;BMP180;10205;49.678;6.560;2022-11-27T13:33:36;100180.00;;;11.80
20092;BMP180;10205;49.678;6.560;2022-11-27T13:36:17;100176.00;;;11.80
20092;BMP180;10205;49.678;6.560;2022-11-27T13:38:51;100171.00;;;11.80
20092;BMP180;10205;49.678;6.560;2022-11-27T13:41:21;100162.00;;;11.90
20092;BMP180;10205;49.678;6.560;2022-11-27T13:43:50;100167.00;;;11.90
20092;BMP180;10205;49.678;6.560;2022-11-27T13:46:21;100164.00;;;11.90
20092;BMP180;10205;49.678;6.560;2022-11-27T13:48:53;100178.00;;;11.90
20092;BMP180;10205;49.678;6.560;2022-11-27T13:51:27;100171.00;;;11.90
20092;BMP180;10205;49.678;6.560;2022-11-27T13:54:09;100172.00;;;11.90
20092;BMP180;10205;49.678;6.560;2022-11-27T13:56:38;100175.00;;;11.90
20092;BMP180;10205;49.678;6.560;2022-11-27T13:59:17;100171.00;;;12.00
20092;BMP180;10205;49.678;6.560;2022-11-27T14:01:56;100164.00;;;12.00
20092;BMP180;10205;49.678;6.560;2022-11-27T14:04:24;100173.00;;;11.90
20092;BMP180;10205;49.678;6.560;2022-11-27T14:06:56;100171.00;;;12.00
20092;BMP180;10205;49.678;6.560;2022-11-27T14:09:39;100187.00;;;12.00
20092;BMP180;10205;49.678;6.560;2022-11-27T14:12:19;100186.00;;;12.00
20092;BMP180;10205;49.678;6.560;2022-11-27T14:15:01;100187.00;;;12.00
20092;BMP180;10205;49.678;6.560;2022-11-27T14:17:39;100182.00;;;12.00
20092;BMP180;10205;49.678;6.560;2022-11-27T14:20:28;100185.00;;;12.00
20092;BMP180;10205;49.678;6.560;2022-11-27T14:22:58;100185.00;;;12.00
20092;BMP180;10205;49.678;6.560;2022-11-27T14:25:28;100175.00;;;12.00
20092;BMP180;10205;49.678;6.560;2022-11-27T14:28:09;100200.00;;;12.10
20092;BMP180;10205;49.678;6.560;2022-11-27T14:30:44;100191.00;;;12.10
20092;BMP180;10205;49.678;6.560;2022-11-27T14:33:22;100203.00;;;12.10
20092;BMP180;10205;49.678;6.560;2022-11-27T14:35:52;100197.00;;;12.10